Time;durP1;ratioP1;P1;durP2;ratioP2;P2;SDS_P1;SDS_P2;PMS_P1;PMS_P2;Temp;Humidity;BMP_temperature;BMP_pressure;BME280_temperature;BME280_humidity;BME280_pressure;Samples;Min_cycle;Max_cycle;Signal;HPM_P1;HPM_P2
2023/03/12 00:00:54;;;;;;;3.10;2.65;;;19.50;46.60;;;;;;4992300;28;20232;-70
2023/03/12 00:03:20;;;;;;;3.00;2.45;;;19.40;46.50;;;;;;4991258;28;20185;-70
2023/03/12 00:05:45;;;;;;;3.97;2.47;;;19.40;46.50;;;;;;4990941;28;20217;-70
2023/03/12 00:08:12;;;;;;;2.78;2.35;;;19.40;46.50;;;;;;4990492;28;20227;-70
2023/03/12 00:10:39;;;;;;;2.47;2.08;;;19.40;46.50;;;;;;5003215;28;20204;-70
2023/03/12 00:13:07;;;;;;;2.72;2.53;;;19.40;46.50;;;;;;4994170;28;20258;-70
2023/03/12 00:15:37;;;;;;;3.20;2.90;;;19.50;46.60;;;;;;4994310;28;20199;-70
2023/03/12 00:18:04;;;;;;;3.00;2.70;;;19.40;46.50;;;;;;4993928;28;20217;-70
2023/03/12 00:20:30;;;;;;;3.55;2.60;;;19.50;46.60;;;;;;4993779;28;20220;-70
2023/03/12 00:22:55;;;;;;;2.72;2.20;;;19.40;46.50;;;;;;4992259;28;20193;-70
2023/03/12 00:25:21;;;;;;;3.00;2.50;;;19.50;46.60;;;;;;5010426;28;20184;-70
2023/03/12 00:27:47;;;;;;;3.30;3.00;;;19.40;46.50;;;;;;4992147;28;20204;-70
2023/03/12 00:30:13;;;;;;;2.95;2.60;;;19.50;46.60;;;;;;4993828;28;20254;-70
2023/03/12 00:32:40;;;;;;;3.10;2.45;;;19.50;46.60;;;;;;4984570;28;20551;-70
2023/03/12 00:35:06;;;;;;;2.78;2.45;;;19.40;46.50;;;;;;5009606;28;20192;-70
2023/03/12 00:37:32;;;;;;;3.20;2.55;;;19.40;46.50;;;;;;4993924;28;20194;-70
2023/03/12 00:40:00;;;;;;;2.80;2.50;;;19.40;46.50;;;;;;4993670;28;20294;-70
2023/03/12 00:42:27;;;;;;;2.63;2.35;;;19.40;46.50;;;;;;4994260;28;20191;-70
2023/03/12 00:44:53;;;;;;;2.45;2.25;;;19.50;47.20;;;;;;5004259;28;20270;-70
2023/03/12 00:47:19;;;;;;;3.78;2.22;;;19.40;46.50;;;;;;5001047;28;20284;-70
2023/03/12 00:49:45;;;;;;;3.22;2.50;;;19.50;46.60;;;;;;5034986;28;20195;-70
2023/03/12 00:52:11;;;;;;;3.28;2.45;;;19.50;46.60;;;;;;4995246;28;20212;-70
2023/03/12 00:54:36;;;;;;;3.33;2.65;;;19.40;47.00;;;;;;4997589;28;20188;-70
2023/03/12 00:57:03;;;;;;;3.38;2.53;;;19.40;46.40;;;;;;5029153;28;20201;-70
2023/03/12 00:59:28;;;;;;;2.97;2.60;;;19.40;46.40;;;;;;5013878;28;20620;-71
2023/03/12 01:01:54;;;;;;;3.90;2.60;;;19.50;46.50;;;;;;5013861;28;20204;-70
2023/03/12 01:04:20;;;;;;;3.83;2.80;;;19.40;46.50;;;;;;5005671;28;20184;-70
2023/03/12 01:06:46;;;;;;;4.00;3.00;;;19.40;46.40;;;;;;4997202;28;20219;-70
2023/03/12 01:09:12;;;;;;;3.17;2.80;;;19.40;46.40;;;;;;4994024;28;20184;-70
2023/03/12 01:11:38;;;;;;;2.95;2.65;;;19.40;46.40;;;;;;4992462;28;20200;-70
2023/03/12 01:14:07;;;;;;;3.30;2.70;;;19.40;46.40;;;;;;4997263;28;20290;-70
2023/03/12 01:16:33;;;;;;;3.05;2.70;;;19.40;46.40;;;;;;4997322;28;20199;-70
2023/03/12 01:19:02;;;;;;;3.50;2.95;;;19.40;46.40;;;;;;5013085;28;20200;-70
2023/03/12 01:21:29;;;;;;;3.58;2.60;;;19.40;46.40;;;;;;4996913;28;20315;-70
2023/03/12 01:23:56;;;;;;;3.22;2.92;;;19.40;46.40;;;;;;5013486;28;20216;-70
2023/03/12 01:26:22;;;;;;;2.88;2.33;;;19.40;46.40;;;;;;4996992;28;20176;-70
2023/03/12 01:28:49;;;;;;;3.25;2.35;;;19.40;46.40;;;;;;4997024;28;20184;-70
2023/03/12 01:31:17;;;;;;;2.88;2.53;;;19.40;46.40;;;;;;4988914;28;20690;-71
2023/03/12 01:33:47;;;;;;;3.55;2.72;;;19.40;46.40;;;;;;5013004;28;20196;-70
2023/03/12 01:36:21;;;;;;;3.88;2.83;;;19.40;46.40;;;;;;4996779;28;20180;-70
2023/03/12 01:38:51;;;;;;;2.65;2.42;;;19.40;46.40;;;;;;4989007;28;20193;-71
2023/03/12 01:41:18;;;;;;;3.65;2.58;;;19.40;46.40;;;;;;4996858;28;20216;-71
2023/03/12 01:43:45;;;;;;;3.53;2.80;;;19.40;46.30;;;;;;5012981;28;20283;-70
2023/03/12 01:46:42;;;;;;;3.13;2.78;;;19.40;46.40;;;;;;4996569;28;20256;-69
2023/03/12 01:49:28;;;;;;;2.95;2.40;;;19.40;46.40;;;;;;4997044;28;20184;-70
2023/03/12 01:52:02;;;;;;;3.13;2.58;;;19.40;46.40;;;;;;4996646;28;20208;-70
2023/03/12 01:54:38;;;;;;;2.85;2.55;;;19.40;46.40;;;;;;4997075;28;20187;-70
2023/03/12 01:57:14;;;;;;;2.88;2.40;;;19.40;46.40;;;;;;4996204;28;20222;-70
2023/03/12 01:59:50;;;;;;;2.88;2.58;;;19.40;46.40;;;;;;4989747;28;20203;-70
2023/03/12 02:02:18;;;;;;;2.90;2.40;;;19.40;46.40;;;;;;5017758;28;20249;-70
2023/03/12 02:04:46;;;;;;;3.10;2.50;;;19.40;46.40;;;;;;4991647;28;20192;-71
2023/03/12 02:07:16;;;;;;;2.45;2.25;;;19.40;46.30;;;;;;4996130;28;20215;-70
2023/03/12 02:09:47;;;;;;;2.72;2.53;;;19.40;46.40;;;;;;4996483;28;20184;-71
2023/03/12 02:12:15;;;;;;;2.70;2.22;;;19.40;46.30;;;;;;4996474;28;20568;-70
2023/03/12 02:14:43;;;;;;;2.40;2.20;;;19.40;46.30;;;;;;4996177;28;20184;-71
2023/03/12 02:17:10;;;;;;;3.22;2.53;;;19.40;46.40;;;;;;5011190;28;20569;-71
2023/03/12 02:20:07;;;;;;;3.03;2.55;;;19.40;46.40;;;;;;4995362;28;20238;-70
2023/03/12 02:22:36;;;;;;;2.50;2.17;;;19.40;46.40;;;;;;4992667;28;20184;-71
2023/03/12 02:25:32;;;;;;;2.83;2.42;;;19.40;46.40;;;;;;4991916;28;20189;-70
2023/03/12 02:28:03;;;;;;;2.53;2.30;;;19.40;46.40;;;;;;4987496;28;20192;-70
2023/03/12 02:30:30;;;;;;;2.45;2.25;;;19.40;46.40;;;;;;4996007;28;20219;-71
2023/03/12 02:33:01;;;;;;;2.60;2.40;;;19.40;46.40;;;;;;4987556;28;20279;-70
2023/03/12 02:35:28;;;;;;;2.10;1.90;;;19.40;46.40;;;;;;4995871;28;20373;-70
2023/03/12 02:37:55;;;;;;;2.58;2.38;;;19.40;46.30;;;;;;4998888;28;20876;-70
2023/03/12 02:40:35;;;;;;;2.35;2.15;;;19.40;46.30;;;;;;4995728;28;20215;-70
2023/03/12 02:43:05;;;;;;;2.30;2.10;;;19.40;46.30;;;;;;4995535;28;20187;-71
2023/03/12 02:45:33;;;;;;;2.75;2.50;;;19.40;46.40;;;;;;4998122;28;20184;-70
2023/03/12 02:47:59;;;;;;;2.22;1.92;;;19.40;46.40;;;;;;4992846;28;20581;-70
2023/03/12 02:50:24;;;;;;;2.10;1.90;;;19.40;46.40;;;;;;4995736;28;20218;-71
2023/03/12 02:52:50;;;;;;;2.67;1.95;;;19.40;47.00;;;;;;4994252;28;20201;-70
2023/03/12 02:55:16;;;;;;;2.67;1.98;;;19.40;46.40;;;;;;5011494;28;20188;-70
2023/03/12 02:57:42;;;;;;;2.55;2.30;;;19.40;46.40;;;;;;4987176;28;20192;-71
2023/03/12 03:00:14;;;;;;;2.80;2.45;;;19.40;46.40;;;;;;5011481;28;20249;-70
2023/03/12 03:02:44;;;;;;;3.38;2.03;;;19.40;46.40;;;;;;4996396;28;20233;-70
2023/03/12 03:05:11;;;;;;;3.30;2.45;;;19.40;46.40;;;;;;5011995;28;20192;-71
2023/03/12 03:07:37;;;;;;;2.85;2.45;;;19.40;46.40;;;;;;4995152;28;20184;-70
2023/03/12 03:10:04;;;;;;;2.17;2.05;;;19.40;46.40;;;;;;5011609;28;20650;-70
2023/03/12 03:12:31;;;;;;;2.75;2.30;;;19.40;46.40;;;;;;4995266;28;20250;-70
2023/03/12 03:15:02;;;;;;;2.55;2.22;;;19.40;46.40;;;;;;4994719;28;20204;-70
2023/03/12 03:17:28;;;;;;;2.03;1.92;;;19.40;46.40;;;;;;4991175;28;20189;-71
2023/03/12 03:19:55;;;;;;;2.03;1.92;;;19.40;46.40;;;;;;4991557;28;20224;-70
2023/03/12 03:22:21;;;;;;;2.15;1.67;;;19.40;46.40;;;;;;4987083;28;20194;-71
2023/03/12 03:24:47;;;;;;;2.72;1.90;;;19.40;46.40;;;;;;4994962;28;20180;-70
2023/03/12 03:27:14;;;;;;;2.20;2.10;;;19.40;46.40;;;;;;4993683;28;20275;-70
2023/03/12 03:29:40;;;;;;;2.42;1.80;;;19.40;46.40;;;;;;4994746;28;20202;-70
2023/03/12 03:32:07;;;;;;;2.25;1.90;;;19.40;46.40;;;;;;4992132;28;20287;-70
2023/03/12 03:34:33;;;;;;;2.40;1.80;;;19.40;46.40;;;;;;4997949;28;20272;-70
2023/03/12 03:36:59;;;;;;;1.80;1.63;;;19.40;46.40;;;;;;4974959;28;20276;-70
2023/03/12 03:39:27;;;;;;;2.15;1.95;;;19.40;46.40;;;;;;4975054;28;20275;-70
2023/03/12 03:41:53;;;;;;;3.28;2.25;;;19.40;46.40;;;;;;4975482;28;20243;-70
2023/03/12 03:44:22;;;;;;;1.80;1.70;;;19.40;46.40;;;;;;4991726;28;20205;-71
2023/03/12 03:46:49;;;;;;;2.22;1.73;;;19.40;46.40;;;;;;4999413;28;20629;-70
2023/03/12 03:49:15;;;;;;;2.85;1.65;;;19.40;46.40;;;;;;4993604;28;20641;-70
2023/03/12 03:51:42;;;;;;;1.80;1.67;;;19.40;46.40;;;;;;4994353;28;20649;-70
2023/03/12 03:54:10;;;;;;;2.40;1.70;;;19.40;46.40;;;;;;4986405;28;20200;-70
2023/03/12 03:56:38;;;;;;;1.70;1.60;;;19.40;46.40;;;;;;4994319;28;20188;-71
2023/03/12 03:59:05;;;;;;;2.08;1.88;;;19.40;46.40;;;;;;4994567;28;20199;-70
2023/03/12 04:01:35;;;;;;;2.08;1.77;;;19.40;46.40;;;;;;5010619;28;20293;-70
2023/03/12 04:04:02;;;;;;;2.17;1.90;;;19.40;46.40;;;;;;4985711;28;20185;-70
2023/03/12 04:06:31;;;;;;;1.85;1.60;;;19.40;46.40;;;;;;4982899;28;20185;-70
2023/03/12 04:08:58;;;;;;;2.30;1.80;;;19.40;46.40;;;;;;4982919;28;20231;-70
2023/03/12 04:11:25;;;;;;;2.83;1.73;;;19.40;46.40;;;;;;4977356;28;20307;-70
2023/03/12 04:13:52;;;;;;;2.58;1.88;;;19.40;46.40;;;;;;4982945;28;20199;-69
2023/03/12 04:16:21;;;;;;;1.77;1.67;;;19.40;46.40;;;;;;4975123;28;20191;-70
2023/03/12 04:18:48;;;;;;;1.83;1.60;;;19.40;46.40;;;;;;4974882;28;20197;-70
2023/03/12 04:21:16;;;;;;;1.85;1.70;;;19.40;46.40;;;;;;4991555;28;20219;-70
2023/03/12 04:23:42;;;;;;;2.22;1.80;;;19.40;46.40;;;;;;4999103;28;20722;-69
2023/03/12 04:26:10;;;;;;;1.58;1.48;;;19.50;46.40;;;;;;4990773;28;20216;-71
2023/03/12 04:28:37;;;;;;;1.98;1.48;;;19.50;46.40;;;;;;4980259;28;20250;-70
2023/03/12 04:31:07;;;;;;;2.03;1.67;;;19.40;46.30;;;;;;5025256;23;20682;-70
2023/03/12 04:33:39;;;;;;;2.20;1.60;;;19.50;46.40;;;;;;5035052;28;20618;-70
2023/03/12 04:36:06;;;;;;;2.13;1.77;;;19.40;46.40;;;;;;5037659;28;20186;-70
2023/03/12 04:38:34;;;;;;;2.33;1.75;;;19.40;46.40;;;;;;5029664;28;20291;-70
2023/03/12 04:41:11;;;;;;;1.95;1.55;;;19.40;46.40;;;;;;5013997;28;20218;-71
2023/03/12 04:43:42;;;;;;;1.92;1.50;;;19.50;46.40;;;;;;5034052;28;20187;-70
2023/03/12 04:46:09;;;;;;;1.65;1.33;;;19.50;46.40;;;;;;5033936;28;20186;-70
2023/03/12 04:48:36;;;;;;;1.70;1.60;;;19.40;46.40;;;;;;5031299;28;20263;-68
2023/03/12 04:51:04;;;;;;;1.75;1.63;;;19.40;46.40;;;;;;5033430;28;20218;-69
2023/03/12 04:53:30;;;;;;;2.03;1.65;;;19.50;46.40;;;;;;5033775;28;20183;-68
2023/03/12 04:55:57;;;;;;;1.70;1.60;;;19.50;47.10;;;;;;5033907;28;20230;-68
2023/03/12 04:58:23;;;;;;;2.10;1.70;;;19.40;47.00;;;;;;5033297;28;20187;-68
2023/03/12 05:00:50;;;;;;;1.88;1.40;;;19.40;46.40;;;;;;5030386;28;20215;-68
2023/03/12 05:03:17;;;;;;;1.98;1.50;;;19.40;46.40;;;;;;5048775;28;20194;-69
2023/03/12 05:05:44;;;;;;;2.35;1.70;;;19.40;46.40;;;;;;5033529;28;20275;-68
2023/03/12 05:08:11;;;;;;;1.50;1.33;;;19.40;46.40;;;;;;5033598;28;20270;-69
2023/03/12 05:10:37;;;;;;;1.40;1.30;;;19.50;46.50;;;;;;5033426;28;20211;-68
2023/03/12 05:13:12;;;;;;;1.90;1.80;;;19.50;46.40;;;;;;5033422;28;20285;-68
2023/03/12 05:15:38;;;;;;;1.63;1.10;;;19.50;46.50;;;;;;5033573;28;20266;-68
2023/03/12 05:18:04;;;;;;;1.73;1.60;;;19.50;47.10;;;;;;5049933;28;20279;-68
2023/03/12 05:20:30;;;;;;;1.30;1.20;;;19.50;46.50;;;;;;5032865;28;20203;-68
2023/03/12 05:22:56;;;;;;;1.63;1.35;;;19.50;46.50;;;;;;5033359;28;20714;-68
2023/03/12 05:25:21;;;;;;;1.52;1.42;;;19.50;46.50;;;;;;5033039;28;20202;-68
2023/03/12 05:27:47;;;;;;;1.70;1.60;;;19.50;46.40;;;;;;5033402;28;20195;-69
2023/03/12 05:30:13;;;;;;;1.40;1.30;;;19.50;46.50;;;;;;5033068;28;20273;-68
2023/03/12 05:32:39;;;;;;;2.05;1.48;;;19.50;46.50;;;;;;5033340;28;20603;-68
2023/03/12 05:35:06;;;;;;;2.00;1.50;;;19.50;46.50;;;;;;5033491;28;20700;-69
2023/03/12 05:37:32;;;;;;;1.50;1.40;;;19.50;46.60;;;;;;5033198;28;20278;-69
2023/03/12 05:39:59;;;;;;;1.65;1.55;;;19.50;46.50;;;;;;5031881;28;20206;-69
2023/03/12 05:42:26;;;;;;;1.70;1.60;;;19.50;46.50;;;;;;5033048;28;20203;-69
2023/03/12 05:44:53;;;;;;;2.10;1.73;;;19.50;46.60;;;;;;5032996;28;20193;-69
2023/03/12 05:47:21;;;;;;;1.88;1.70;;;19.50;46.60;;;;;;5032983;28;20667;-69
2023/03/12 05:49:47;;;;;;;2.58;1.58;;;19.50;46.60;;;;;;5033158;28;20183;-69
2023/03/12 05:52:16;;;;;;;2.38;2.17;;;19.50;46.60;;;;;;5032762;28;20689;-69
2023/03/12 05:54:42;;;;;;;2.35;2.15;;;19.50;46.60;;;;;;5049774;28;20199;-69
2023/03/12 05:57:09;;;;;;;2.17;1.98;;;19.50;46.60;;;;;;5032827;28;20175;-69
2023/03/12 05:59:35;;;;;;;2.40;2.20;;;19.50;46.60;;;;;;5032796;28;20190;-69
2023/03/12 06:02:01;;;;;;;2.20;2.00;;;19.50;46.60;;;;;;5025353;28;20243;-69
2023/03/12 06:04:27;;;;;;;2.35;2.13;;;19.50;46.60;;;;;;5031750;28;20184;-69
2023/03/12 06:06:53;;;;;;;2.03;1.92;;;19.50;46.60;;;;;;5032513;28;20209;-69
2023/03/12 06:09:19;;;;;;;3.00;2.38;;;19.50;46.70;;;;;;5032596;28;20175;-69
2023/03/12 06:11:45;;;;;;;2.28;2.08;;;19.50;46.70;;;;;;5032435;28;20215;-69
2023/03/12 06:14:12;;;;;;;2.60;2.40;;;19.50;46.70;;;;;;5015838;28;20191;-69
2023/03/12 06:16:38;;;;;;;2.25;2.05;;;19.50;46.70;;;;;;5032349;28;20187;-69
2023/03/12 06:19:05;;;;;;;2.17;2.05;;;19.50;46.70;;;;;;5031959;28;20195;-69
2023/03/12 06:21:34;;;;;;;2.10;2.00;;;19.50;46.70;;;;;;5024305;28;20288;-69
2023/03/12 06:24:02;;;;;;;2.30;2.10;;;19.50;46.70;;;;;;5032235;28;20199;-69
2023/03/12 06:26:33;;;;;;;4.05;2.25;;;19.50;47.30;;;;;;5032029;28;20202;-69
2023/03/12 06:28:59;;;;;;;2.47;2.28;;;19.50;46.70;;;;;;5048676;28;20651;-70
2023/03/12 06:31:25;;;;;;;2.22;2.05;;;19.50;46.80;;;;;;5031823;28;20246;-69
2023/03/12 06:33:52;;;;;;;2.50;2.28;;;19.50;46.80;;;;;;5031894;28;20209;-69
2023/03/12 06:36:19;;;;;;;2.88;2.38;;;19.50;46.80;;;;;;5048240;28;20191;-69
2023/03/12 06:38:45;;;;;;;2.70;2.50;;;19.50;46.80;;;;;;5031923;28;20191;-69
2023/03/12 06:41:17;;;;;;;3.47;3.13;;;19.50;46.80;;;;;;5031760;28;20215;-69
2023/03/12 06:43:45;;;;;;;3.45;3.15;;;19.50;46.80;;;;;;5031869;28;20219;-69
2023/03/12 06:46:15;;;;;;;3.40;3.10;;;19.50;46.80;;;;;;5031448;28;20179;-68
2023/03/12 06:48:42;;;;;;;3.10;2.80;;;19.50;46.80;;;;;;5015335;28;20210;-69
2023/03/12 06:51:14;;;;;;;2.85;2.60;;;19.50;46.80;;;;;;5024779;28;20249;-69
2023/03/12 06:53:40;;;;;;;2.92;2.67;;;19.60;46.90;;;;;;5030988;28;20194;-70
2023/03/12 06:56:06;;;;;;;2.97;2.30;;;19.50;47.50;;;;;;5031588;28;20193;-69
2023/03/12 06:58:32;;;;;;;2.72;2.53;;;19.50;46.90;;;;;;5031119;28;20218;-70
2023/03/12 07:00:58;;;;;;;2.90;2.58;;;19.50;46.80;;;;;;5031331;28;20242;-69
2023/03/12 07:03:24;;;;;;;2.53;2.33;;;19.50;46.90;;;;;;5030018;28;20196;-69
2023/03/12 07:05:51;;;;;;;2.35;2.15;;;19.50;46.80;;;;;;5039643;28;20621;-69
2023/03/12 07:08:17;;;;;;;2.88;2.40;;;19.60;46.90;;;;;;5047481;28;20191;-69
2023/03/12 07:10:44;;;;;;;2.38;2.17;;;19.60;46.90;;;;;;5030993;28;20221;-69
2023/03/12 07:13:11;;;;;;;2.70;2.50;;;19.60;47.00;;;;;;5039152;28;20187;-69
2023/03/12 07:15:37;;;;;;;2.50;2.30;;;19.50;46.90;;;;;;5030779;28;20191;-69
2023/03/12 07:18:08;;;;;;;2.80;2.60;;;19.60;47.00;;;;;;5039728;28;20198;-69
2023/03/12 07:20:41;;;;;;;2.70;2.50;;;19.60;47.00;;;;;;5013163;28;20224;-69
2023/03/12 07:23:08;;;;;;;2.88;2.67;;;19.60;47.00;;;;;;5012260;28;20183;-71
2023/03/12 07:25:37;;;;;;;3.30;3.00;;;19.60;47.00;;;;;;5020189;28;20195;-69
2023/03/12 07:28:03;;;;;;;2.80;2.60;;;19.60;47.00;;;;;;5030672;28;20226;-69
2023/03/12 07:30:32;;;;;;;3.30;3.00;;;19.60;47.00;;;;;;5029688;28;20192;-69
2023/03/12 07:33:11;;;;;;;3.00;2.80;;;19.60;47.00;;;;;;5030515;28;20202;-70
2023/03/12 07:35:38;;;;;;;2.55;2.35;;;19.60;47.00;;;;;;5013480;28;20187;-69
2023/03/12 07:38:04;;;;;;;3.13;2.13;;;19.60;47.00;;;;;;5028221;28;20183;-69
2023/03/12 07:40:30;;;;;;;2.78;1.95;;;19.60;47.00;;;;;;5030151;28;20212;-70
2023/03/12 07:42:57;;;;;;;2.58;2.38;;;19.60;47.00;;;;;;5030224;28;20244;-70
2023/03/12 07:45:24;;;;;;;2.38;2.17;;;19.60;47.00;;;;;;5013357;28;20190;-69
2023/03/12 07:47:50;;;;;;;2.33;2.13;;;19.60;47.60;;;;;;5037562;28;20736;-69
2023/03/12 07:50:18;;;;;;;2.00;1.90;;;19.60;47.00;;;;;;5029966;28;20225;-69
2023/03/12 07:52:45;;;;;;;2.20;2.00;;;19.60;47.00;;;;;;5028290;28;20210;-70
2023/03/12 07:55:11;;;;;;;2.33;2.08;;;19.70;47.00;;;;;;5029612;28;20597;-70
2023/03/12 07:57:37;;;;;;;2.47;2.15;;;19.60;47.00;;;;;;5029538;28;20187;-70
2023/03/12 08:00:09;;;;;;;3.08;2.35;;;19.60;47.00;;;;;;5030223;28;20225;-70
2023/03/12 08:02:37;;;;;;;2.50;2.30;;;19.60;47.00;;;;;;5045953;28;20196;-70
2023/03/12 08:05:04;;;;;;;2.13;2.00;;;19.60;47.00;;;;;;5030056;28;20190;-69
2023/03/12 08:07:33;;;;;;;2.70;2.50;;;19.60;47.00;;;;;;5015018;28;20187;-70
2023/03/12 08:10:04;;;;;;;2.40;2.20;;;19.60;47.00;;;;;;5030515;28;20187;-70
2023/03/12 08:12:30;;;;;;;2.38;2.20;;;19.60;47.10;;;;;;5030426;28;20203;-70
2023/03/12 08:14:56;;;;;;;2.40;2.20;;;19.60;47.00;;;;;;5030565;28;20179;-70
2023/03/12 08:17:22;;;;;;;2.15;2.05;;;19.70;47.20;;;;;;5030012;28;20195;-70
2023/03/12 08:19:48;;;;;;;3.30;2.67;;;19.70;47.10;;;;;;5030153;28;20191;-69
2023/03/12 08:22:13;;;;;;;2.30;2.10;;;19.70;47.10;;;;;;5030283;28;20210;-69
2023/03/12 08:24:39;;;;;;;2.60;2.40;;;19.70;47.20;;;;;;5030392;28;20279;-69
2023/03/12 08:27:05;;;;;;;3.25;2.30;;;19.70;47.20;;;;;;5030243;28;20187;-69
2023/03/12 08:29:32;;;;;;;2.97;2.17;;;19.70;47.70;;;;;;5046720;28;20233;-69
2023/03/12 08:31:58;;;;;;;2.05;1.95;;;19.70;47.20;;;;;;5030175;28;20297;-69
2023/03/12 08:34:24;;;;;;;2.20;2.00;;;19.70;47.20;;;;;;5030372;28;20198;-69
2023/03/12 08:36:50;;;;;;;1.92;1.83;;;19.70;47.20;;;;;;5030244;28;20187;-69
2023/03/12 08:39:16;;;;;;;2.03;1.92;;;19.70;47.20;;;;;;5030068;28;20191;-69
2023/03/12 08:41:42;;;;;;;2.20;2.00;;;19.70;47.20;;;;;;5030052;28;20210;-69
2023/03/12 08:44:07;;;;;;;2.47;2.28;;;19.70;47.20;;;;;;5046828;28;20191;-69
2023/03/12 08:46:33;;;;;;;1.95;1.85;;;19.70;47.20;;;;;;5046575;28;20217;-69
2023/03/12 08:48:59;;;;;;;2.20;2.03;;;19.70;47.20;;;;;;5046674;28;20199;-69
2023/03/12 08:51:25;;;;;;;2.00;1.90;;;19.70;47.20;;;;;;5028186;28;20215;-69
2023/03/12 08:53:51;;;;;;;1.80;1.70;;;19.70;47.30;;;;;;5026328;28;20194;-69
2023/03/12 08:56:17;;;;;;;2.20;1.85;;;19.80;47.30;;;;;;5023723;28;20196;-69
2023/03/12 08:58:43;;;;;;;1.92;1.83;;;19.70;47.20;;;;;;5029959;28;20195;-69
2023/03/12 09:01:12;;;;;;;2.50;2.30;;;19.70;47.30;;;;;;5029994;28;20211;-69
2023/03/12 09:03:40;;;;;;;1.67;1.58;;;19.70;47.30;;;;;;5030025;28;20192;-69
2023/03/12 09:06:15;;;;;;;2.10;1.90;;;19.70;47.30;;;;;;5027220;28;20284;-68
2023/03/12 09:08:43;;;;;;;1.90;1.80;;;19.80;47.40;;;;;;5021848;28;20247;-68
2023/03/12 09:11:11;;;;;;;2.13;2.03;;;19.80;47.40;;;;;;5029866;28;20215;-68
2023/03/12 09:13:39;;;;;;;1.90;1.80;;;19.80;48.00;;;;;;5031781;28;20270;-69
2023/03/12 09:16:06;;;;;;;1.90;1.80;;;19.70;47.40;;;;;;5033827;28;20232;-68
2023/03/12 09:18:33;;;;;;;1.73;1.63;;;19.80;47.50;;;;;;5034017;28;20221;-68
2023/03/12 09:20:59;;;;;;;1.80;1.70;;;19.80;47.50;;;;;;5034974;28;20215;-69
2023/03/12 09:23:26;;;;;;;2.00;1.90;;;19.70;47.40;;;;;;5036237;28;20183;-69
2023/03/12 09:25:52;;;;;;;2.08;1.75;;;19.70;47.40;;;;;;5034197;28;20229;-68
2023/03/12 09:28:18;;;;;;;1.73;1.63;;;19.70;47.40;;;;;;5033726;28;20195;-69
2023/03/12 09:30:45;;;;;;;2.65;1.98;;;19.80;47.60;;;;;;5034038;28;20318;-68
2023/03/12 09:33:11;;;;;;;2.53;1.90;;;19.70;47.50;;;;;;5033807;28;20218;-69
2023/03/12 09:35:38;;;;;;;2.38;2.08;;;19.80;47.50;;;;;;5050497;28;20183;-68
2023/03/12 09:38:04;;;;;;;2.05;1.63;;;19.80;47.60;;;;;;5050135;28;20171;-69
2023/03/12 09:40:35;;;;;;;1.80;1.70;;;19.80;47.60;;;;;;5033114;28;20207;-69
2023/03/12 09:43:14;;;;;;;2.45;1.65;;;19.80;47.60;;;;;;5033602;28;20186;-69
2023/03/12 09:45:46;;;;;;;1.80;1.70;;;19.80;47.60;;;;;;5034177;28;20191;-69
2023/03/12 09:48:32;;;;;;;2.15;1.83;;;19.80;47.60;;;;;;5033691;28;20180;-69
2023/03/12 09:51:48;;;;;;;1.83;1.73;;;19.80;47.60;;;;;;5047485;28;20254;-68
2023/03/12 09:54:44;;;;;;;2.83;2.00;;;19.80;47.60;;;;;;5023796;28;20194;-69
2023/03/12 09:57:20;;;;;;;1.95;1.75;;;19.80;47.60;;;;;;5031895;28;20187;-69
2023/03/12 09:59:46;;;;;;;1.60;1.50;;;19.90;47.70;;;;;;5031610;28;20266;-69
2023/03/12 10:02:51;;;;;;;1.52;1.42;;;19.80;47.60;;;;;;5032713;28;20298;-69
2023/03/12 10:05:43;;;;;;;1.45;1.35;;;19.80;47.70;;;;;;5049257;28;20183;-68
2023/03/12 10:08:37;;;;;;;3.33;1.80;;;19.80;48.30;;;;;;5025993;28;20186;-69
2023/03/12 10:11:05;;;;;;;2.13;1.67;;;19.80;47.80;;;;;;5022242;28;20203;-68
2023/03/12 10:13:57;;;;;;;2.78;1.60;;;19.80;47.70;;;;;;5032839;28;20191;-69
2023/03/12 10:16:48;;;;;;;3.85;2.00;;;19.80;47.80;;;;;;5041780;28;20183;-69
2023/03/12 10:19:31;;;;;;;1.50;1.40;;;19.80;47.80;;;;;;5041212;28;20289;-69
2023/03/12 10:22:17;;;;;;;1.98;1.52;;;19.80;47.80;;;;;;5024177;28;20207;-69
2023/03/12 10:25:19;;;;;;;1.70;1.60;;;19.80;47.80;;;;;;5029901;28;20241;-69
2023/03/12 10:27:45;;;;;;;2.15;1.50;;;19.80;47.80;;;;;;5021447;28;20190;-69
2023/03/12 10:30:23;;;;;;;1.80;1.70;;;19.90;47.90;;;;;;5032654;28;20190;-69
2023/03/12 10:33:03;;;;;;;1.50;1.40;;;19.90;47.90;;;;;;5029545;28;20192;-68
2023/03/12 10:35:29;;;;;;;2.40;1.75;;;19.90;47.90;;;;;;5030815;28;20190;-69
2023/03/12 10:38:00;;;;;;;1.55;1.35;;;19.90;48.00;;;;;;5033300;28;20191;-69
2023/03/12 10:40:33;;;;;;;1.95;1.80;;;19.90;48.00;;;;;;5026454;28;20212;-69
2023/03/12 10:43:00;;;;;;;1.63;1.50;;;19.90;48.00;;;;;;5027845;28;20180;-70
2023/03/12 10:45:38;;;;;;;1.83;1.60;;;19.90;48.00;;;;;;5026639;28;20183;-69
2023/03/12 10:48:08;;;;;;;1.38;1.27;;;19.90;48.00;;;;;;5029808;28;20205;-69
2023/03/12 10:50:37;;;;;;;1.60;1.50;;;19.90;48.00;;;;;;5042673;28;20215;-69
2023/03/12 10:53:25;;;;;;;1.58;1.48;;;19.90;48.00;;;;;;5040992;28;20182;-68
2023/03/12 10:56:09;;;;;;;2.17;1.30;;;19.90;48.00;;;;;;5038875;28;20187;-68
2023/03/12 10:58:37;;;;;;;1.48;1.30;;;19.90;48.00;;;;;;5039375;28;20177;-69
2023/03/12 11:01:15;;;;;;;1.50;1.40;;;19.90;48.10;;;;;;5031812;28;20210;-69
2023/03/12 11:03:42;;;;;;;1.88;1.60;;;19.90;48.00;;;;;;5010019;28;20187;-68
2023/03/12 11:06:20;;;;;;;1.65;1.40;;;19.90;48.00;;;;;;5031285;28;20171;-69
2023/03/12 11:09:08;;;;;;;1.38;1.17;;;19.90;48.00;;;;;;5039405;28;20191;-69
2023/03/12 11:11:35;;;;;;;1.25;1.15;;;19.90;48.10;;;;;;5025640;28;20755;-69
2023/03/12 11:14:20;;;;;;;1.10;1.10;;;19.90;48.10;;;;;;5037383;28;20187;-69
2023/03/12 11:16:47;;;;;;;1.63;1.50;;;19.90;48.10;;;;;;5038164;28;20240;-68
2023/03/12 11:19:27;;;;;;;1.40;1.30;;;19.90;48.10;;;;;;5031456;28;20562;-68
2023/03/12 11:22:03;;;;;;;1.58;1.35;;;19.90;48.10;;;;;;5031617;28;20294;-68
2023/03/12 11:24:29;;;;;;;1.60;1.50;;;19.90;48.10;;;;;;5028710;28;20520;-69
2023/03/12 11:27:06;;;;;;;1.50;1.40;;;19.90;48.20;;;;;;5030524;28;20451;-68
2023/03/12 11:29:38;;;;;;;1.52;1.42;;;19.90;48.20;;;;;;5047876;28;20171;-69
2023/03/12 11:32:31;;;;;;;2.15;1.30;;;19.90;48.20;;;;;;5028793;28;20218;-69
2023/03/12 11:34:59;;;;;;;2.58;1.55;;;19.90;48.30;;;;;;5030255;28;20183;-68
2023/03/12 11:37:56;;;;;;;2.10;1.58;;;19.90;48.30;;;;;;5030181;28;20178;-68
2023/03/12 11:41:01;;;;;;;1.42;1.33;;;19.90;48.30;;;;;;5028453;28;20221;-68
2023/03/12 11:43:51;;;;;;;1.35;1.13;;;19.90;48.30;;;;;;5030447;28;20226;-68
2023/03/12 11:46:33;;;;;;;1.27;1.17;;;19.90;48.30;;;;;;5027708;28;20183;-68
2023/03/12 11:49:37;;;;;;;1.45;1.35;;;19.90;48.30;;;;;;5030856;28;20206;-68
2023/03/12 11:52:54;;;;;;;1.52;1.27;;;20.00;48.40;;;;;;5028804;28;20202;-68
2023/03/12 11:55:57;;;;;;;1.85;1.42;;;19.90;48.40;;;;;;5028024;28;20203;-68
2023/03/12 11:58:41;;;;;;;1.40;1.27;;;20.00;48.50;;;;;;5044872;28;20183;-68
2023/03/12 12:01:20;;;;;;;2.17;1.38;;;19.90;48.40;;;;;;5023682;28;20670;-68
2023/03/12 12:04:03;;;;;;;1.40;1.25;;;19.90;48.40;;;;;;5030928;28;20184;-70
2023/03/12 12:07:01;;;;;;;2.42;1.30;;;20.00;48.40;;;;;;5030638;28;20170;-68
2023/03/12 12:10:18;;;;;;;1.27;1.20;;;19.90;48.40;;;;;;5027483;28;20179;-68
2023/03/12 12:13:26;;;;;;;1.20;1.10;;;20.00;48.40;;;;;;5029702;28;20187;-68
2023/03/12 12:16:12;;;;;;;1.95;1.20;;;20.00;48.50;;;;;;5029453;28;20195;-68
2023/03/12 12:18:59;;;;;;;1.83;1.20;;;20.00;48.40;;;;;;5047006;28;20190;-68
2023/03/12 12:21:31;;;;;;;1.38;1.27;;;20.00;48.40;;;;;;5005583;28;20239;-68
2023/03/12 12:24:18;;;;;;;1.58;1.20;;;20.00;48.40;;;;;;5030235;28;20669;-68
2023/03/12 12:27:11;;;;;;;1.60;1.23;;;20.00;48.40;;;;;;5028164;28;20187;-68
2023/03/12 12:29:39;;;;;;;1.25;1.08;;;20.00;48.50;;;;;;5019090;28;20202;-68
2023/03/12 12:32:18;;;;;;;1.35;0.98;;;20.00;48.60;;;;;;5030064;28;20211;-68
2023/03/12 12:35:00;;;;;;;1.27;1.17;;;20.00;48.60;;;;;;5025730;28;20184;-69
2023/03/12 12:37:47;;;;;;;1.48;1.38;;;20.00;48.60;;;;;;5043287;28;20187;-68
2023/03/12 12:40:48;;;;;;;1.50;1.20;;;20.00;48.60;;;;;;5038032;28;20210;-68
2023/03/12 12:43:31;;;;;;;1.30;1.00;;;20.00;48.60;;;;;;5033069;28;20257;-68
2023/03/12 12:46:29;;;;;;;0.90;0.90;;;20.00;48.60;;;;;;5046520;28;20254;-68
2023/03/12 12:49:03;;;;;;;1.20;0.82;;;20.00;48.60;;;;;;5031941;28;20270;-68
2023/03/12 12:51:39;;;;;;;1.45;1.20;;;20.00;48.60;;;;;;5032437;28;20214;-68
2023/03/12 12:54:39;;;;;;;1.02;1.00;;;20.00;48.60;;;;;;5045688;28;20245;-68
2023/03/12 12:57:19;;;;;;;2.60;1.17;;;20.00;48.60;;;;;;5024722;28;20268;-69
2023/03/12 13:00:18;;;;;;;1.63;1.30;;;20.00;48.60;;;;;;5008317;28;20238;-69
2023/03/12 13:02:46;;;;;;;1.52;1.00;;;20.00;48.60;;;;;;5038980;28;20671;-67
2023/03/12 13:05:42;;;;;;;1.73;1.17;;;20.10;48.70;;;;;;5033303;28;20203;-68
2023/03/12 13:08:43;;;;;;;1.70;1.20;;;20.00;48.70;;;;;;5048547;28;20201;-69
2023/03/12 13:11:15;;;;;;;1.38;1.05;;;20.00;48.70;;;;;;5026727;28;20230;-69